Ali Cat — MZCL8 — position and weather

sailwx.info

Track history (hours):
 
Tides and Currents Weather Stations Pressure Air Temp Water Temp Dewpoint Dewpoint Depression Visibility Wind Speed Wind Dir Waves Ship Positions

Ali Cat

Operator: MRCC Clyde

Last reported at 2019-Oct-18 20:51 UTC. Time now 2019-Oct-18 23:50 UTC.
Position N 55°57' W 004°52'.

Length 19 m.

Type: Passenger vessel. MMSI: 235056506.

Date/timePositionNaut miles runAvg speedWind from/ knotsBaromVisibWave heightAir tempDewpointWater temp
2019-Oct-18 20:51N 55°57' W 004°52'0 0.4
2019-Oct-18 19:29N 55°57' W 004°53'0 0.1
2019-Oct-18 18:31N 55°57' W 004°53'0 9.9
2019-Oct-18 18:30N 55°57' W 004°53'2 1.8
2019-Oct-18 17:38N 55°58' W 004°50'1 9.7
2019-Oct-18 17:30N 55°57' W 004°52'1 0.8
2019-Oct-18 16:35N 55°57' W 004°51'1 9.9
2019-Oct-18 16:29N 55°57' W 004°53'2 2.5
2019-Oct-18 15:45N 55°58' W 004°50'2 9.9
2019-Oct-18 15:30N 55°57' W 004°54'2 1.7
2019-Oct-18 14:37N 55°57' W 004°51'110.3
2019-Oct-18 14:30N 55°57' W 004°53'0 0.1
2019-Oct-18 11:31N 55°57' W 004°52'0 9.5
2019-Oct-18 11:30N 55°57' W 004°53'1 1.4
2019-Oct-18 10:36N 55°58' W 004°51'111.5
2019-Oct-18 10:29N 55°57' W 004°53'2 2.3
2019-Oct-18 09:39N 55°58' W 004°50'211.1
2019-Oct-18 09:30N 55°57' W 004°52'1 0.7
2019-Oct-18 08:36N 55°57' W 004°51'111.3
2019-Oct-18 08:30N 55°57' W 004°53'1 1.1
2019-Oct-18 07:34N 55°57' W 004°51'110.6
2019-Oct-18 07:30N 55°57' W 004°52'1 0.8
2019-Oct-18 06:30N 55°57' W 004°51'1 0.1
2019-Oct-17 20:59N 55°58' W 004°50'1 2.0
2019-Oct-17 20:22N 55°58' W 004°52'0 0.4
2019-Oct-17 19:33N 55°57' W 004°52'110.1
2019-Oct-17 19:30N 55°57' W 004°52'1 1.6
2019-Oct-17 18:39N 55°58' W 004°50'2 9.7
2019-Oct-17 18:29N 55°57' W 004°53'1 0.9
2019-Oct-17 17:35N 55°57' W 004°51'1 9.9
2019-Oct-17 17:30N 55°57' W 004°53'1 0.9
2019-Oct-17 16:34N 55°57' W 004°51'110.4
2019-Oct-17 16:29N 55°57' W 004°53'2 2.0
2019-Oct-17 15:39N 55°58' W 004°50'110.0
2019-Oct-17 15:31N 55°57' W 004°52'2 1.9
2019-Oct-17 14:41N 55°58' W 004°50'210.7
2019-Oct-17 14:30N 55°57' W 004°53'0 0.5
2019-Oct-17 13:32N 55°57' W 004°52'010.7
2019-Oct-17 13:30N 55°57' W 004°52'2 2.2
2019-Oct-17 12:40N 55°58' W 004°49'210.9
2019-Oct-17 12:30N 55°57' W 004°53'2 2.1
2019-Oct-17 11:39N 55°58' W 004°50'211.2
2019-Oct-17 11:30N 55°57' W 004°53'0 0.5
2019-Oct-17 10:32N 55°57' W 004°52'011.3
2019-Oct-17 10:30N 55°57' W 004°53'2 2.3
2019-Oct-17 09:41N 55°58' W 004°49'210.9
2019-Oct-17 09:30N 55°57' W 004°53'1 2.5
2019-Oct-17 08:59N 55°58' W 004°51'1 2.6
2019-Oct-17 08:29N 55°57' W 004°53'1 1.6
2019-Oct-17 07:37N 55°58' W 004°51'110.6
2019-Oct-17 07:30N 55°57' W 004°53'1 2.5
2019-Oct-17 06:58N 55°58' W 004°51'0 1.0
2019-Oct-17 06:30N 55°57' W 004°51'0 0.4
2019-Oct-17 05:55N 55°58' W 004°51'0 0.0
2019-Oct-16 20:54N 55°58' W 004°51'1 3.4
2019-Oct-16 20:28N 55°57' W 004°53'1 0.9
2019-Oct-16 19:32N 55°57' W 004°52'010.1
2019-Oct-16 19:30N 55°57' W 004°53'1 0.9
2019-Oct-16 18:36N 55°57' W 004°51'110.0
2019-Oct-16 18:30N 55°57' W 004°53'3 3.2
2019-Oct-16 17:43N 55°58' W 004°49'210.1
2019-Oct-16 17:30N 55°57' W 004°53'1 0.6
2019-Oct-16 16:32N 55°57' W 004°52'010.1
2019-Oct-16 16:30N 55°57' W 004°52'1 1.1
2019-Oct-16 15:36N 55°58' W 004°51'110.3
2019-Oct-16 15:30N 55°57' W 004°53'2 2.6
2019-Oct-16 14:42N 55°58' W 004°49'210.2
2019-Oct-16 14:31N 55°57' W 004°52'1 0.4
2019-Oct-16 11:39N 55°58' W 004°50'110.5
2019-Oct-16 11:30N 55°57' W 004°53'2 2.0
2019-Oct-16 10:39N 55°58' W 004°50'210.8
2019-Oct-16 10:30N 55°57' W 004°53'2 2.4
2019-Oct-16 09:41N 55°58' W 004°49'211.1
2019-Oct-16 09:29N 55°57' W 004°53'1 1.6
2019-Oct-16 08:37N 55°58' W 004°51'110.9
2019-Oct-16 08:30N 55°57' W 004°53'1 1.7
2019-Oct-16 07:38N 55°58' W 004°50'110.7
2019-Oct-16 07:30N 55°57' W 004°53'2 1.7
2019-Oct-16 06:34N 55°58' W 004°50'110.0
2019-Oct-16 06:30N 55°57' W 004°51'0 0.8
2019-Oct-16 05:58N 55°58' W 004°52'1 0.1
2019-Oct-15 20:52N 55°57' W 004°51'1 1.3
2019-Oct-15 20:24N 55°58' W 004°52'1 1.6
2019-Oct-15 19:37N 55°58' W 004°50'211.6
2019-Oct-15 19:29N 55°57' W 004°52'2 2.3
2019-Oct-15 18:40N 55°58' W 004°49'210.7
2019-Oct-15 18:30N 55°57' W 004°52'1 1.2
2019-Oct-15 17:36N 55°58' W 004°50'111.0
2019-Oct-15 17:30N 55°57' W 004°52'2 2.0
2019-Oct-15 16:41N 55°58' W 004°50'2 9.8
2019-Oct-15 16:29N 55°57' W 004°53'1 1.6
2019-Oct-15 15:37N 55°58' W 004°50'1 9.9
2019-Oct-15 15:30N 55°57' W 004°52'0 0.3
2019-Oct-15 14:32N 55°57' W 004°52'1 9.9
2019-Oct-15 14:29N 55°57' W 004°53'1 0.4
2019-Oct-15 11:36N 55°58' W 004°51'110.5
2019-Oct-15 11:30N 55°57' W 004°53'1 0.5
2019-Oct-15 10:32N 55°57' W 004°52'110.5
2019-Oct-15 10:29N 55°57' W 004°53'0 0.3
2019-Oct-15 09:31N 55°57' W 004°52'010.0
2019-Oct-15 09:30N 55°57' W 004°52'1 0.8
2019-Oct-15 08:35N 55°58' W 004°51'110.7
2019-Oct-15 08:30N 55°57' W 004°52'2 2.9
2019-Oct-15 07:56N 55°58' W 004°50'2 3.8
2019-Oct-15 07:30N 55°57' W 004°52'1 1.3
2019-Oct-15 07:00N 55°58' W 004°52'0 0.3
2019-Oct-15 06:29N 55°58' W 004°51'1 1.1
2019-Oct-15 05:59N 55°58' W 004°52'1 0.1
2019-Oct-14 20:54N 55°58' W 004°51'1 1.3
2019-Oct-14 20:21N 55°58' W 004°52'2 2.2
2019-Oct-14 19:38N 55°58' W 004°49'211.7
2019-Oct-14 19:29N 55°57' W 004°52'1 0.8
2019-Oct-14 17:38N 55°58' W 004°50'110.4
2019-Oct-14 17:29N 55°57' W 004°52'1 1.1
2019-Oct-14 16:35N 55°58' W 004°51'110.6
2019-Oct-14 16:30N 55°57' W 004°52'1 1.0
2019-Oct-14 15:35N 55°58' W 004°51'110.9
2019-Oct-14 15:30N 55°57' W 004°52'0 0.4
2019-Oct-14 14:32N 55°57' W 004°52'110.6
2019-Oct-14 14:28N 55°57' W 004°53'2 2.5
2019-Oct-14 13:39N 55°58' W 004°50'210.8
2019-Oct-14 13:30N 55°57' W 004°52'1 0.5
2019-Oct-14 11:36N 55°58' W 004°51'110.2
2019-Oct-14 11:29N 55°57' W 004°53'1 2.8
2019-Oct-14 10:57N 55°58' W 004°51'1 2.7
2019-Oct-14 10:30N 55°57' W 004°52'1 1.0
2019-Oct-14 09:36N 55°58' W 004°51'110.1
2019-Oct-14 09:30N 55°57' W 004°52'1 1.7
2019-Oct-14 09:00N 55°58' W 004°51'1 1.8
2019-Oct-14 08:30N 55°57' W 004°52'1 1.6
2019-Oct-14 07:38N 55°58' W 004°50'110.4
2019-Oct-14 07:30N 55°57' W 004°52'1 0.9
2019-Oct-14 06:31N 55°57' W 004°51'010.3
2019-Oct-14 06:28N 55°57' W 004°52'1 1.1
2019-Oct-14 06:00N 55°58' W 004°53'1 0.0
2019-Oct-13 16:00N 55°57' W 004°52'2 2.0
2019-Oct-13 15:10N 55°58' W 004°49'210.7
2019-Oct-13 15:00N 55°57' W 004°52'0 0.4
2019-Oct-13 14:03N 55°57' W 004°52'110.7
2019-Oct-13 13:59N 55°57' W 004°53'1 2.4
2019-Oct-13 13:29N 55°58' W 004°51'1 2.4
2019-Oct-13 12:59N 55°57' W 004°53'1 0.0
2019-Oct-12 20:50N 55°57' W 004°52'0 1.1
2019-Oct-12 20:23N 55°57' W 004°53'0 0.2
2019-Oct-12 19:30N 55°57' W 004°52'1 1.4
2019-Oct-12 18:37N 55°58' W 004°50'111.3
2019-Oct-12 18:30N 55°57' W 004°53'0 0.5
2019-Oct-12 17:32N 55°57' W 004°52'010.8
2019-Oct-12 17:30N 55°57' W 004°52'2 2.5
2019-Oct-12 16:42N 55°58' W 004°49'210.3
2019-Oct-12 16:30N 55°57' W 004°52'1 1.2
2019-Oct-12 15:38N 55°58' W 004°51'110.6
2019-Oct-12 15:30N 55°57' W 004°53'0 0.2
2019-Oct-12 14:31N 55°57' W 004°53'010.5
2019-Oct-12 14:30N 55°57' W 004°53'1 1.3
2019-Oct-12 13:36N 55°57' W 004°51'110.6
2019-Oct-12 13:30N 55°57' W 004°53'0 0.3
2019-Oct-12 12:31N 55°57' W 004°52'010.8
2019-Oct-12 12:30N 55°57' W 004°52'0 0.0
2019-Oct-12 11:31N 55°57' W 004°52'010.8
2019-Oct-12 11:30N 55°57' W 004°53'0 0.2
2019-Oct-12 10:30N 55°57' W 004°52'1 2.1
2019-Oct-12 09:58N 55°58' W 004°51'1 3.0
2019-Oct-12 09:30N 55°57' W 004°53'1 0.8
2019-Oct-12 07:42N 55°58' W 004°50'210.7
2019-Oct-12 07:30N 55°57' W 004°54'2 3.2
2019-Oct-12 07:01N 55°58' W 004°51'0 0.7
2019-Oct-12 06:30N 55°58' W 004°51'1 1.0
2019-Oct-12 05:57N 55°58' W 004°52'1 0.1
2019-Oct-11 20:57N 55°58' W 004°50'3 5.4
2019-Oct-11 20:28N 55°57' W 004°54'2 2.1
2019-Oct-11 19:34N 55°58' W 004°51'111.6
2019-Oct-11 19:29N 55°57' W 004°52'0 0.4
2019-Oct-11 18:27N 55°57' W 004°53'0 0.3
2019-Oct-11 17:30N 55°57' W 004°53'2 1.8
2019-Oct-11 16:37N 55°58' W 004°50'210.9
2019-Oct-11 16:29N 55°57' W 004°53'1 1.6
2019-Oct-11 15:36N 55°58' W 004°50'110.9
2019-Oct-11 15:29N 55°57' W 004°53'1 0.9
2019-Oct-11 14:34N 55°58' W 004°51'110.9
2019-Oct-11 14:30N 55°57' W 004°52'0 0.1
2019-Oct-11 13:31N 55°57' W 004°52'011.6
2019-Oct-11 13:30N 55°57' W 004°53'1 0.7
2019-Oct-11 11:36N 55°58' W 004°51'111.4
2019-Oct-11 11:29N 55°57' W 004°53'0 0.1
2019-Oct-11 10:29N 55°57' W 004°53'1 0.8
2019-Oct-11 09:31N 55°58' W 004°52'011.5
2019-Oct-11 09:29N 55°57' W 004°52'1 2.2
2019-Oct-11 08:57N 55°58' W 004°50'1 3.1
2019-Oct-11 08:29N 55°57' W 004°53'1 1.3
2019-Oct-11 07:32N 55°58' W 004°51'111.2
2019-Oct-11 07:26N 55°58' W 004°53'1 0.1
2019-Oct-10 20:53N 55°58' W 004°51'0 0.1
2019-Oct-10 19:33N 55°58' W 004°51'111.3
2019-Oct-10 19:30N 55°57' W 004°52'0 0.3
2019-Oct-10 18:31N 55°57' W 004°52'111.8
2019-Oct-10 18:27N 55°57' W 004°53'1 1.2
2019-Oct-10 17:33N 55°58' W 004°51'111.3
2019-Oct-10 17:27N 55°57' W 004°53'0 0.1
2019-Oct-10 16:29N 55°57' W 004°53'1 1.6
2019-Oct-10 15:36N 55°58' W 004°50'111.0
2019-Oct-10 15:29N 55°57' W 004°53'2 2.4
2019-Oct-10 14:40N 55°58' W 004°49'211.2
2019-Oct-10 14:29N 55°57' W 004°53'2 0.7
2019-Oct-10 11:43N 55°58' W 004°49'210.7
2019-Oct-10 11:30N 55°57' W 004°53'2 1.9
2019-Oct-10 10:40N 55°58' W 004°51'210.9
2019-Oct-10 10:30N 55°57' W 004°54'3 3.4
2019-Oct-10 09:43N 55°58' W 004°49'210.8
2019-Oct-10 09:30N 55°57' W 004°53'2 2.6
2019-Oct-10 08:41N 55°58' W 004°50'210.9
2019-Oct-10 08:30N 55°57' W 004°53'2 2.8
2019-Oct-10 07:43N 55°58' W 004°50'210.2
2019-Oct-10 07:30N 55°57' W 004°53'1 0.9
2019-Oct-10 06:29N 55°57' W 004°52'1 1.3
2019-Oct-10 05:57N 55°58' W 004°51'0 0.0
2019-Oct-09 20:51N 55°58' W 004°51'1 0.8
2019-Oct-09 19:36N 55°58' W 004°50'212.1
2019-Oct-09 19:27N 55°57' W 004°53'0 0.3
2019-Oct-09 18:29N 55°57' W 004°53'1 1.5
2019-Oct-09 18:00N 55°58' W 004°51'1 1.2
2019-Oct-09 17:30N 55°57' W 004°52'1 2.3
2019-Oct-09 16:57N 55°58' W 004°50'1 2.9
2019-Oct-09 16:30N 55°57' W 004°52'0 0.1
2019-Oct-09 15:28N 55°57' W 004°53'1 1.7
2019-Oct-09 15:00N 55°58' W 004°51'1 1.6
2019-Oct-09 14:28N 55°57' W 004°53'1 0.6
2019-Oct-09 13:31N 55°57' W 004°52'011.3
2019-Oct-09 13:29N 55°57' W 004°52'2 0.8
2019-Oct-09 11:38N 55°58' W 004°50'210.7
2019-Oct-09 11:30N 55°57' W 004°52'2 2.1
2019-Oct-09 10:40N 55°58' W 004°49'210.8
2019-Oct-09 10:30N 55°57' W 004°52'0 0.4
2019-Oct-09 09:32N 55°57' W 004°52'010.8
2019-Oct-09 09:30N 55°57' W 004°53'1 0.7
2019-Oct-09 08:33N 55°57' W 004°52'110.6
2019-Oct-09 08:30N 55°57' W 004°53'1 2.1
2019-Oct-09 07:59N 55°58' W 004°51'1 2.0
2019-Oct-09 07:30N 55°57' W 004°52'1 1.0
2019-Oct-09 06:32N 55°58' W 004°51'010.6
2019-Oct-09 06:30N 55°58' W 004°51'1 1.6
2019-Oct-09 05:49N 55°58' W 004°49'0 0.0
2019-Oct-08 21:05N 55°58' W 004°49'111.6
2019-Oct-08 20:59N 55°58' W 004°51'  
Track history (hours):
 
Tides and Currents Weather Stations Pressure Air Temp Water Temp Dewpoint Dewpoint Depression Visibility Wind Speed Wind Dir Waves Ship Positions

Ali Cat

Operator: MRCC Clyde

Last reported at 2019-Oct-18 20:51 UTC. Time now 2019-Oct-18 23:50 UTC.
Position N 55°57' W 004°52'.

Length 19 m.

Type: Passenger vessel. MMSI: 235056506.

Date/timePositionNaut miles runAvg speedWind from/ knotsBaromVisibWave heightAir tempDewpointWater temp
2019-Oct-18 20:51N 55°57' W 004°52'0 0.4
2019-Oct-18 19:29N 55°57' W 004°53'0 0.1
2019-Oct-18 18:31N 55°57' W 004°53'0 9.9
2019-Oct-18 18:30N 55°57' W 004°53'2 1.8
2019-Oct-18 17:38N 55°58' W 004°50'1 9.7
2019-Oct-18 17:30N 55°57' W 004°52'1 0.8
2019-Oct-18 16:35N 55°57' W 004°51'1 9.9
2019-Oct-18 16:29N 55°57' W 004°53'2 2.5
2019-Oct-18 15:45N 55°58' W 004°50'2 9.9
2019-Oct-18 15:30N 55°57' W 004°54'2 1.7
2019-Oct-18 14:37N 55°57' W 004°51'110.3
2019-Oct-18 14:30N 55°57' W 004°53'0 0.1
2019-Oct-18 11:31N 55°57' W 004°52'0 9.5
2019-Oct-18 11:30N 55°57' W 004°53'1 1.4
2019-Oct-18 10:36N 55°58' W 004°51'111.5
2019-Oct-18 10:29N 55°57' W 004°53'2 2.3
2019-Oct-18 09:39N 55°58' W 004°50'211.1
2019-Oct-18 09:30N 55°57' W 004°52'1 0.7
2019-Oct-18 08:36N 55°57' W 004°51'111.3
2019-Oct-18 08:30N 55°57' W 004°53'1 1.1
2019-Oct-18 07:34N 55°57' W 004°51'110.6
2019-Oct-18 07:30N 55°57' W 004°52'1 0.8
2019-Oct-18 06:30N 55°57' W 004°51'1 0.1
2019-Oct-17 20:59N 55°58' W 004°50'1 2.0
2019-Oct-17 20:22N 55°58' W 004°52'0 0.4
2019-Oct-17 19:33N 55°57' W 004°52'110.1
2019-Oct-17 19:30N 55°57' W 004°52'1 1.6
2019-Oct-17 18:39N 55°58' W 004°50'2 9.7
2019-Oct-17 18:29N 55°57' W 004°53'1 0.9
2019-Oct-17 17:35N 55°57' W 004°51'1 9.9
2019-Oct-17 17:30N 55°57' W 004°53'1 0.9
2019-Oct-17 16:34N 55°57' W 004°51'110.4
2019-Oct-17 16:29N 55°57' W 004°53'2 2.0
2019-Oct-17 15:39N 55°58' W 004°50'110.0
2019-Oct-17 15:31N 55°57' W 004°52'2 1.9
2019-Oct-17 14:41N 55°58' W 004°50'210.7
2019-Oct-17 14:30N 55°57' W 004°53'0 0.5
2019-Oct-17 13:32N 55°57' W 004°52'010.7
2019-Oct-17 13:30N 55°57' W 004°52'2 2.2
2019-Oct-17 12:40N 55°58' W 004°49'210.9
2019-Oct-17 12:30N 55°57' W 004°53'2 2.1
2019-Oct-17 11:39N 55°58' W 004°50'211.2
2019-Oct-17 11:30N 55°57' W 004°53'0 0.5
2019-Oct-17 10:32N 55°57' W 004°52'011.3
2019-Oct-17 10:30N 55°57' W 004°53'2 2.3
2019-Oct-17 09:41N 55°58' W 004°49'210.9
2019-Oct-17 09:30N 55°57' W 004°53'1 2.5
2019-Oct-17 08:59N 55°58' W 004°51'1 2.6
2019-Oct-17 08:29N 55°57' W 004°53'1 1.6
2019-Oct-17 07:37N 55°58' W 004°51'110.6
2019-Oct-17 07:30N 55°57' W 004°53'1 2.5
2019-Oct-17 06:58N 55°58' W 004°51'0 1.0
2019-Oct-17 06:30N 55°57' W 004°51'0 0.4
2019-Oct-17 05:55N 55°58' W 004°51'0 0.0
2019-Oct-16 20:54N 55°58' W 004°51'1 3.4
2019-Oct-16 20:28N 55°57' W 004°53'1 0.9
2019-Oct-16 19:32N 55°57' W 004°52'010.1
2019-Oct-16 19:30N 55°57' W 004°53'1 0.9
2019-Oct-16 18:36N 55°57' W 004°51'110.0
2019-Oct-16 18:30N 55°57' W 004°53'3 3.2
2019-Oct-16 17:43N 55°58' W 004°49'210.1
2019-Oct-16 17:30N 55°57' W 004°53'1 0.6
2019-Oct-16 16:32N 55°57' W 004°52'010.1
2019-Oct-16 16:30N 55°57' W 004°52'1 1.1
2019-Oct-16 15:36N 55°58' W 004°51'110.3
2019-Oct-16 15:30N 55°57' W 004°53'2 2.6
2019-Oct-16 14:42N 55°58' W 004°49'210.2
2019-Oct-16 14:31N 55°57' W 004°52'1 0.4
2019-Oct-16 11:39N 55°58' W 004°50'110.5
2019-Oct-16 11:30N 55°57' W 004°53'2 2.0
2019-Oct-16 10:39N 55°58' W 004°50'210.8
2019-Oct-16 10:30N 55°57' W 004°53'2 2.4
2019-Oct-16 09:41N 55°58' W 004°49'211.1
2019-Oct-16 09:29N 55°57' W 004°53'1 1.6
2019-Oct-16 08:37N 55°58' W 004°51'110.9
2019-Oct-16 08:30N 55°57' W 004°53'1 1.7
2019-Oct-16 07:38N 55°58' W 004°50'110.7
2019-Oct-16 07:30N 55°57' W 004°53'2 1.7
2019-Oct-16 06:34N 55°58' W 004°50'110.0
2019-Oct-16 06:30N 55°57' W 004°51'0 0.8
2019-Oct-16 05:58N 55°58' W 004°52'1 0.1
2019-Oct-15 20:52N 55°57' W 004°51'1 1.3
2019-Oct-15 20:24N 55°58' W 004°52'1 1.6
2019-Oct-15 19:37N 55°58' W 004°50'211.6
2019-Oct-15 19:29N 55°57' W 004°52'2 2.3
2019-Oct-15 18:40N 55°58' W 004°49'210.7
2019-Oct-15 18:30N 55°57' W 004°52'1 1.2
2019-Oct-15 17:36N 55°58' W 004°50'111.0
2019-Oct-15 17:30N 55°57' W 004°52'2 2.0
2019-Oct-15 16:41N 55°58' W 004°50'2 9.8
2019-Oct-15 16:29N 55°57' W 004°53'1 1.6
2019-Oct-15 15:37N 55°58' W 004°50'1 9.9
2019-Oct-15 15:30N 55°57' W 004°52'0 0.3
2019-Oct-15 14:32N 55°57' W 004°52'1 9.9
2019-Oct-15 14:29N 55°57' W 004°53'1 0.4
2019-Oct-15 11:36N 55°58' W 004°51'110.5
2019-Oct-15 11:30N 55°57' W 004°53'1 0.5
2019-Oct-15 10:32N 55°57' W 004°52'110.5
2019-Oct-15 10:29N 55°57' W 004°53'0 0.3
2019-Oct-15 09:31N 55°57' W 004°52'010.0
2019-Oct-15 09:30N 55°57' W 004°52'1 0.8
2019-Oct-15 08:35N 55°58' W 004°51'110.7
2019-Oct-15 08:30N 55°57' W 004°52'2 2.9
2019-Oct-15 07:56N 55°58' W 004°50'2 3.8
2019-Oct-15 07:30N 55°57' W 004°52'1 1.3
2019-Oct-15 07:00N 55°58' W 004°52'0 0.3
2019-Oct-15 06:29N 55°58' W 004°51'1 1.1
2019-Oct-15 05:59N 55°58' W 004°52'1 0.1
2019-Oct-14 20:54N 55°58' W 004°51'1 1.3
2019-Oct-14 20:21N 55°58' W 004°52'2 2.2
2019-Oct-14 19:38N 55°58' W 004°49'211.7
2019-Oct-14 19:29N 55°57' W 004°52'1 0.8
2019-Oct-14 17:38N 55°58' W 004°50'110.4
2019-Oct-14 17:29N 55°57' W 004°52'1 1.1
2019-Oct-14 16:35N 55°58' W 004°51'110.6
2019-Oct-14 16:30N 55°57' W 004°52'1 1.0
2019-Oct-14 15:35N 55°58' W 004°51'110.9
2019-Oct-14 15:30N 55°57' W 004°52'0 0.4
2019-Oct-14 14:32N 55°57' W 004°52'110.6
2019-Oct-14 14:28N 55°57' W 004°53'2 2.5
2019-Oct-14 13:39N 55°58' W 004°50'210.8
2019-Oct-14 13:30N 55°57' W 004°52'1 0.5
2019-Oct-14 11:36N 55°58' W 004°51'110.2
2019-Oct-14 11:29N 55°57' W 004°53'1 2.8
2019-Oct-14 10:57N 55°58' W 004°51'1 2.7
2019-Oct-14 10:30N 55°57' W 004°52'1 1.0
2019-Oct-14 09:36N 55°58' W 004°51'110.1
2019-Oct-14 09:30N 55°57' W 004°52'1 1.7
2019-Oct-14 09:00N 55°58' W 004°51'1 1.8
2019-Oct-14 08:30N 55°57' W 004°52'1 1.6
2019-Oct-14 07:38N 55°58' W 004°50'110.4
2019-Oct-14 07:30N 55°57' W 004°52'1 0.9
2019-Oct-14 06:31N 55°57' W 004°51'010.3
2019-Oct-14 06:28N 55°57' W 004°52'1 1.1
2019-Oct-14 06:00N 55°58' W 004°53'1 0.0
2019-Oct-13 16:00N 55°57' W 004°52'2 2.0
2019-Oct-13 15:10N 55°58' W 004°49'210.7
2019-Oct-13 15:00N 55°57' W 004°52'0 0.4
2019-Oct-13 14:03N 55°57' W 004°52'110.7
2019-Oct-13 13:59N 55°57' W 004°53'1 2.4
2019-Oct-13 13:29N 55°58' W 004°51'1 2.4
2019-Oct-13 12:59N 55°57' W 004°53'1 0.0
2019-Oct-12 20:50N 55°57' W 004°52'0 1.1
2019-Oct-12 20:23N 55°57' W 004°53'0 0.2
2019-Oct-12 19:30N 55°57' W 004°52'1 1.4
2019-Oct-12 18:37N 55°58' W 004°50'111.3
2019-Oct-12 18:30N 55°57' W 004°53'0 0.5
2019-Oct-12 17:32N 55°57' W 004°52'010.8
2019-Oct-12 17:30N 55°57' W 004°52'2 2.5
2019-Oct-12 16:42N 55°58' W 004°49'210.3
2019-Oct-12 16:30N 55°57' W 004°52'1 1.2
2019-Oct-12 15:38N 55°58' W 004°51'110.6
2019-Oct-12 15:30N 55°57' W 004°53'0 0.2
2019-Oct-12 14:31N 55°57' W 004°53'010.5
2019-Oct-12 14:30N 55°57' W 004°53'1 1.3
2019-Oct-12 13:36N 55°57' W 004°51'110.6
2019-Oct-12 13:30N 55°57' W 004°53'0 0.3
2019-Oct-12 12:31N 55°57' W 004°52'010.8
2019-Oct-12 12:30N 55°57' W 004°52'0 0.0
2019-Oct-12 11:31N 55°57' W 004°52'010.8
2019-Oct-12 11:30N 55°57' W 004°53'0 0.2
2019-Oct-12 10:30N 55°57' W 004°52'1 2.1
2019-Oct-12 09:58N 55°58' W 004°51'1 3.0
2019-Oct-12 09:30N 55°57' W 004°53'1 0.8
2019-Oct-12 07:42N 55°58' W 004°50'210.7
2019-Oct-12 07:30N 55°57' W 004°54'2 3.2
2019-Oct-12 07:01N 55°58' W 004°51'0 0.7
2019-Oct-12 06:30N 55°58' W 004°51'1 1.0
2019-Oct-12 05:57N 55°58' W 004°52'1 0.1
2019-Oct-11 20:57N 55°58' W 004°50'3 5.4
2019-Oct-11 20:28N 55°57' W 004°54'2 2.1
2019-Oct-11 19:34N 55°58' W 004°51'111.6
2019-Oct-11 19:29N 55°57' W 004°52'0 0.4
2019-Oct-11 18:27N 55°57' W 004°53'0 0.3
2019-Oct-11 17:30N 55°57' W 004°53'2 1.8
2019-Oct-11 16:37N 55°58' W 004°50'210.9
2019-Oct-11 16:29N 55°57' W 004°53'1 1.6
2019-Oct-11 15:36N 55°58' W 004°50'110.9
2019-Oct-11 15:29N 55°57' W 004°53'1 0.9
2019-Oct-11 14:34N 55°58' W 004°51'110.9
2019-Oct-11 14:30N 55°57' W 004°52'0 0.1
2019-Oct-11 13:31N 55°57' W 004°52'011.6
2019-Oct-11 13:30N 55°57' W 004°53'1 0.7
2019-Oct-11 11:36N 55°58' W 004°51'111.4
2019-Oct-11 11:29N 55°57' W 004°53'0 0.1
2019-Oct-11 10:29N 55°57' W 004°53'1 0.8
2019-Oct-11 09:31N 55°58' W 004°52'011.5
2019-Oct-11 09:29N 55°57' W 004°52'1 2.2
2019-Oct-11 08:57N 55°58' W 004°50'1 3.1
2019-Oct-11 08:29N 55°57' W 004°53'1 1.3
2019-Oct-11 07:32N 55°58' W 004°51'111.2
2019-Oct-11 07:26N 55°58' W 004°53'1 0.1
2019-Oct-10 20:53N 55°58' W 004°51'0 0.1
2019-Oct-10 19:33N 55°58' W 004°51'111.3
2019-Oct-10 19:30N 55°57' W 004°52'0 0.3
2019-Oct-10 18:31N 55°57' W 004°52'111.8
2019-Oct-10 18:27N 55°57' W 004°53'1 1.2
2019-Oct-10 17:33N 55°58' W 004°51'111.3
2019-Oct-10 17:27N 55°57' W 004°53'0 0.1
2019-Oct-10 16:29N 55°57' W 004°53'1 1.6
2019-Oct-10 15:36N 55°58' W 004°50'111.0
2019-Oct-10 15:29N 55°57' W 004°53'2 2.4
2019-Oct-10 14:40N 55°58' W 004°49'211.2
2019-Oct-10 14:29N 55°57' W 004°53'2 0.7
2019-Oct-10 11:43N 55°58' W 004°49'210.7
2019-Oct-10 11:30N 55°57' W 004°53'2 1.9
2019-Oct-10 10:40N 55°58' W 004°51'210.9
2019-Oct-10 10:30N 55°57' W 004°54'3 3.4
2019-Oct-10 09:43N 55°58' W 004°49'210.8
2019-Oct-10 09:30N 55°57' W 004°53'2 2.6
2019-Oct-10 08:41N 55°58' W 004°50'210.9
2019-Oct-10 08:30N 55°57' W 004°53'2 2.8
2019-Oct-10 07:43N 55°58' W 004°50'210.2
2019-Oct-10 07:30N 55°57' W 004°53'1 0.9
2019-Oct-10 06:29N 55°57' W 004°52'1 1.3
2019-Oct-10 05:57N 55°58' W 004°51'0 0.0
2019-Oct-09 20:51N 55°58' W 004°51'1 0.8
2019-Oct-09 19:36N 55°58' W 004°50'212.1
2019-Oct-09 19:27N 55°57' W 004°53'0 0.3
2019-Oct-09 18:29N 55°57' W 004°53'1 1.5
2019-Oct-09 18:00N 55°58' W 004°51'1 1.2
2019-Oct-09 17:30N 55°57' W 004°52'1 2.3
2019-Oct-09 16:57N 55°58' W 004°50'1 2.9
2019-Oct-09 16:30N 55°57' W 004°52'0 0.1
2019-Oct-09 15:28N 55°57' W 004°53'1 1.7
2019-Oct-09 15:00N 55°58' W 004°51'1 1.6
2019-Oct-09 14:28N 55°57' W 004°53'1 0.6
2019-Oct-09 13:31N 55°57' W 004°52'011.3
2019-Oct-09 13:29N 55°57' W 004°52'2 0.8
2019-Oct-09 11:38N 55°58' W 004°50'210.7
2019-Oct-09 11:30N 55°57' W 004°52'2 2.1
2019-Oct-09 10:40N 55°58' W 004°49'210.8
2019-Oct-09 10:30N 55°57' W 004°52'0 0.4
2019-Oct-09 09:32N 55°57' W 004°52'010.8
2019-Oct-09 09:30N 55°57' W 004°53'1 0.7
2019-Oct-09 08:33N 55°57' W 004°52'110.6
2019-Oct-09 08:30N 55°57' W 004°53'1 2.1
2019-Oct-09 07:59N 55°58' W 004°51'1 2.0
2019-Oct-09 07:30N 55°57' W 004°52'1 1.0
2019-Oct-09 06:32N 55°58' W 004°51'010.6
2019-Oct-09 06:30N 55°58' W 004°51'1 1.6
2019-Oct-09 05:49N 55°58' W 004°49'0 0.0
2019-Oct-08 21:05N 55°58' W 004°49'111.6
2019-Oct-08 20:59N 55°58' W 004°51'  

Dump ship's entire track history